createdAt,value
2022-11-10T00:02:10.361Z,18.9
2022-11-10T00:07:32.611Z,18.9
2022-11-10T00:12:55.381Z,18.9
2022-11-10T00:18:01.743Z,18.9
2022-11-10T00:23:23.883Z,18.9
2022-11-10T00:28:45.449Z,18.9
2022-11-10T00:34:07.658Z,18.9
2022-11-10T00:39:14.367Z,18.9
2022-11-10T00:44:37.397Z,18.9
2022-11-10T00:49:57.806Z,18.9
2022-11-10T00:55:03.374Z,18.9
2022-11-10T01:00:10.031Z,18.9
2022-11-10T01:05:32.004Z,18.8
2022-11-10T01:10:54.298Z,18.8
2022-11-10T01:16:19.243Z,18.8
2022-11-10T01:21:41.038Z,18.8
2022-11-10T01:27:03.228Z,18.9
2022-11-10T01:31:54.183Z,18.8
2022-11-10T01:37:00.574Z,18.8
2022-11-10T01:42:22.460Z,18.8
2022-11-10T01:47:44.680Z,18.8
2022-11-10T01:53:06.250Z,18.8
2022-11-10T01:58:43.629Z,18.8
2022-11-10T02:03:50.197Z,18.8
2022-11-10T02:09:26.962Z,18.8
2022-11-10T02:14:33.332Z,18.8
2022-11-10T02:20:10.769Z,18.8
2022-11-10T02:25:47.490Z,18.8
2022-11-10T02:31:25.401Z,18.8
2022-11-10T02:36:47.006Z,18.8
2022-11-10T02:42:07.447Z,18.8
2022-11-10T02:47:29.040Z,18.8
2022-11-10T02:53:06.699Z,18.8
2022-11-10T02:58:27.966Z,18.8
2022-11-10T03:03:55.766Z,18.8
2022-11-10T03:09:33.465Z,18.8
2022-11-10T03:15:31.716Z,18.8
2022-11-10T03:21:09.316Z,18.8
2022-11-10T03:26:46.729Z,18.8
2022-11-10T03:32:23.770Z,18.8
2022-11-10T03:49:09.764Z,18.8
2022-11-10T03:54:31.351Z,18.8
2022-11-10T05:34:28.269Z,18.6
2022-11-10T05:40:07.481Z,18.6
2022-11-10T05:51:06.936Z,18.6
2022-11-10T05:56:45.035Z,18.6
2022-11-10T06:02:22.464Z,18.6
2022-11-10T06:08:01.488Z,18.6
2022-11-10T06:13:38.750Z,18.6
2022-11-10T06:19:16.046Z,18.6
2022-11-10T06:25:01.541Z,18.6
2022-11-10T06:30:39.514Z,18.6
2022-11-10T06:36:23.400Z,18.6
2022-11-10T06:42:01.399Z,18.6
2022-11-10T06:47:39.365Z,18.6
2022-11-10T06:53:16.758Z,18.6
2022-11-10T06:58:54.813Z,18.6
2022-11-10T07:05:08.176Z,18.5
2022-11-10T07:10:46.173Z,18.5
2022-11-10T07:16:09.250Z,18.5
2022-11-10T07:21:46.864Z,18.5
2022-11-10T07:27:30.728Z,18.5
2022-11-10T07:33:13.304Z,18.5
2022-11-10T07:38:56.158Z,18.5
2022-11-10T07:44:38.473Z,18.5
2022-11-10T07:50:15.961Z,18.5
2022-11-10T07:55:53.692Z,18.5
2022-11-10T08:01:35.576Z,18.5
2022-11-10T08:07:14.284Z,18.4
2022-11-10T08:12:36.989Z,18.5
2022-11-10T08:18:14.964Z,18.5
2022-11-10T08:23:56.836Z,18.4
2022-11-10T08:29:35.221Z,18.5
2022-11-10T08:35:20.140Z,18.5
2022-11-10T08:41:18.254Z,18.5
2022-11-10T08:46:57.161Z,18.4
2022-11-10T08:52:35.142Z,18.4
2022-11-10T08:58:13.697Z,18.5
2022-11-10T09:03:57.499Z,18.5
2022-11-10T09:09:35.467Z,18.4
2022-11-10T09:15:13.827Z,18.5
2022-11-10T09:20:58.673Z,18.4
2022-11-10T09:26:27.665Z,18.5
2022-11-10T09:32:12.750Z,18.4
2022-11-10T09:37:55.138Z,18.4
2022-11-10T09:43:37.469Z,18.5
2022-11-10T09:49:47.433Z,18.5
2022-11-10T09:55:25.451Z,18.4
2022-11-10T10:01:07.698Z,18.4
2022-11-10T10:07:13.540Z,18.4
2022-11-10T10:12:52.502Z,18.4
2022-11-10T10:18:33.885Z,18.4
2022-11-10T10:24:53.179Z,18.5
2022-11-10T10:30:31.035Z,18.4
2022-11-10T10:36:14.384Z,18.4
2022-11-10T10:41:56.568Z,18.4
2022-11-10T10:47:38.481Z,18.4
2022-11-10T10:53:44.606Z,18.4
2022-11-10T10:59:06.311Z,18.4
2022-11-10T11:04:45.048Z,18.4
2022-11-10T11:10:23.641Z,18.4
2022-11-10T11:16:07.989Z,18.4
2022-11-10T11:21:32.042Z,18.4
2022-11-10T11:27:10.283Z,18.4
2022-11-10T11:32:50.450Z,18.5
2022-11-10T11:38:33.696Z,18.5
2022-11-10T11:44:13.557Z,18.4
2022-11-10T11:49:52.103Z,18.5
2022-11-10T11:55:14.630Z,18.4
2022-11-10T12:00:10.430Z,18.5
2022-11-10T12:05:22.343Z,18.5
2022-11-10T12:10:30.003Z,18.5
2022-11-10T12:15:37.339Z,18.4
2022-11-10T12:21:04.305Z,18.5
2022-11-10T12:26:12.082Z,18.5
2022-11-10T12:31:35.363Z,18.4
2022-11-10T12:36:42.230Z,18.4
2022-11-10T12:41:49.260Z,18.5
2022-11-10T12:46:55.951Z,18.5
2022-11-10T12:52:19.343Z,18.5
2022-11-10T12:57:25.928Z,18.5
2022-11-10T13:02:53.530Z,18.5
2022-11-10T13:08:20.970Z,18.5
2022-11-10T13:13:43.568Z,18.5
2022-11-10T13:19:05.767Z,18.5
2022-11-10T13:24:30.593Z,18.5
2022-11-10T13:29:53.506Z,18.5
2022-11-10T13:34:59.440Z,18.5
2022-11-10T13:40:41.951Z,18.5
2022-11-10T13:46:06.420Z,18.5
2022-11-10T13:51:44.620Z,18.5
2022-11-10T13:57:12.676Z,18.5
2022-11-10T14:02:49.797Z,18.5
2022-11-10T14:08:29.140Z,18.5
2022-11-10T14:13:51.696Z,18.5
2022-11-10T14:19:30.651Z,18.5
2022-11-10T14:25:13.903Z,18.5
2022-11-10T14:30:59.302Z,18.6
2022-11-10T14:36:38.413Z,18.5
2022-11-10T14:42:17.243Z,18.6
2022-11-10T14:47:55.621Z,18.5
2022-11-10T14:53:34.506Z,18.5
2022-11-10T14:59:14.998Z,18.5
2022-11-10T15:04:54.146Z,18.6
2022-11-10T15:10:40.151Z,18.5
2022-11-10T15:16:19.031Z,18.5
2022-11-10T15:21:57.038Z,18.5
2022-11-10T15:27:36.010Z,18.5
2022-11-10T15:33:18.784Z,18.5
2022-11-10T15:38:42.348Z,18.5
2022-11-10T15:44:13.520Z,18.5
2022-11-10T15:49:54.950Z,18.5
2022-11-10T15:55:39.109Z,18.5
2022-11-10T16:01:01.147Z,18.5
2022-11-10T16:06:24.095Z,18.5
2022-11-10T16:12:03.115Z,18.5
2022-11-10T16:17:26.415Z,18.5
2022-11-10T16:23:05.140Z,18.4
2022-11-10T16:28:16.298Z,18.5
2022-11-10T16:33:23.967Z,18.5
2022-11-10T16:38:46.979Z,18.4
2022-11-10T16:44:09.954Z,18.4
2022-11-10T16:49:49.507Z,18.4
2022-11-10T16:54:56.318Z,18.4
2022-11-10T16:59:53.881Z,18.4
2022-11-10T17:05:37.914Z,18.4
2022-11-10T17:10:45.207Z,18.4
2022-11-10T17:16:07.417Z,18.4
2022-11-10T17:21:15.617Z,18.4
2022-11-10T17:26:39.573Z,18.4
2022-11-10T17:31:36.289Z,18.4
2022-11-10T17:37:20.970Z,18.4
2022-11-10T17:42:44.359Z,18.4
2022-11-10T17:47:52.108Z,18.4
2022-11-10T17:53:19.899Z,18.4
2022-11-10T17:58:15.552Z,18.4
2022-11-10T18:03:11.780Z,22.8
2022-11-10T18:08:35.048Z,31.3
2022-11-10T18:14:13.762Z,35.3
2022-11-10T18:19:56.001Z,38.6
2022-11-10T18:25:19.414Z,40.6
2022-11-10T18:30:57.647Z,42.5
2022-11-10T18:36:35.742Z,41.9
2022-11-10T18:41:58.874Z,39.1
2022-11-10T18:47:39.221Z,36.9
2022-11-10T18:53:24.069Z,35.9
2022-11-10T18:59:08.795Z,37.3
2022-11-10T19:04:32.432Z,37.2
2022-11-10T19:10:14.888Z,37.6
2022-11-10T19:15:54.129Z,38.2
2022-11-10T19:21:19.933Z,38.8
2022-11-10T19:27:26.227Z,38.1
2022-11-10T19:33:04.299Z,36.2
2022-11-10T19:38:27.259Z,37.5
2022-11-10T19:44:05.719Z,35.8
2022-11-10T19:49:45.178Z,35.5
2022-11-10T19:55:23.155Z,36.2
2022-11-10T20:01:04.011Z,35.5
2022-11-10T20:06:45.417Z,36.4
2022-11-10T20:12:24.989Z,35.8
2022-11-10T20:18:09.173Z,37.7
2022-11-10T20:23:37.517Z,37.8
2022-11-10T20:29:21.744Z,37.4
2022-11-10T20:35:00.896Z,36.8
2022-11-10T20:41:00.337Z,37.6
2022-11-10T20:47:12.222Z,35.9
2022-11-10T20:52:22.266Z,35.9
2022-11-10T20:58:26.266Z,35.8
2022-11-10T21:03:48.948Z,36.1
2022-11-10T21:09:31.054Z,35.6
2022-11-10T21:15:09.689Z,34.9
2022-11-10T21:20:31.503Z,34
2022-11-10T21:25:54.777Z,32.7
2022-11-10T21:31:21.086Z,31.5
2022-11-10T21:37:01.287Z,30.5
2022-11-10T21:42:40.355Z,29.7
2022-11-10T21:48:03.775Z,28.9
2022-11-10T21:53:41.166Z,28.2
2022-11-10T21:59:19.670Z,27.5
2022-11-10T22:04:58.841Z,27
2022-11-10T22:10:35.473Z,26.5
2022-11-10T22:15:58.519Z,26.1
2022-11-10T22:21:21.387Z,25.6
2022-11-10T22:27:05.040Z,25.4
2022-11-10T22:32:31.794Z,25
2022-11-10T22:37:55.183Z,24.7
2022-11-10T22:42:47.840Z,24.3
2022-11-10T22:48:10.996Z,24.1
2022-11-10T22:53:33.204Z,27.1
2022-11-10T22:58:59.782Z,25.9
2022-11-10T23:04:07.151Z,25.3
2022-11-10T23:09:50.040Z,34
2022-11-10T23:15:27.236Z,35.3
2022-11-10T23:20:53.634Z,35.3
2022-11-10T23:26:37.511Z,35.6
2022-11-10T23:32:14.965Z,35.8
2022-11-10T23:37:53.311Z,34.3
2022-11-10T23:43:15.657Z,35.2
2022-11-10T23:49:15.008Z,35.4
2022-11-10T23:54:21.817Z,34.9
2022-11-10T23:59:59.887Z,34.4
